Terminal Aerodrome Forecast
Issued by NWS Jackson, MS

Home | Current Version | Previous Version | Text Only | Print | Product List | Glossary On
Versions: 1 2 3 4 5 6 7 8 9 10 11 12 13
806
FTUS44 KMEG 230530
TAFTUP
TAF
KTUP 230530Z 2306/2406 02005KT P6SM VCSH BKN040 BKN150
      TEMPO 2309/2313 -SHRA SCT030
     FM231500 01009KT P6SM SCT040 BKN250
     FM240100 02004KT P6SM FEW250=

USA.gov is the U.S. government's official web portal to all federal, state and local government web resources and services.